Time;durP1;ratioP1;P1;durP2;ratioP2;P2;SDS_P1;SDS_P2;PMS_P1;PMS_P2;Temp;Humidity;BMP_temperature;BMP_pressure;BME280_temperature;BME280_humidity;BME280_pressure;Samples;Min_cycle;Max_cycle;Signal;HPM_P1;HPM_P2
2022/02/17 00:00:26;;;;;;;0.97;0.40;;;14.10;99.90;;;;;;6144069;23;20451;-86
2022/02/17 00:03:37;;;;;;;0.70;0.50;;;14.10;99.90;;;;;;6172496;23;20461;-85
2022/02/17 00:06:29;;;;;;;1.43;0.50;;;14.10;99.90;;;;;;6141884;23;20467;-86
2022/02/17 00:09:19;;;;;;;1.10;0.93;;;14.10;99.90;;;;;;6142865;23;20450;-88
2022/02/17 00:12:08;;;;;;;1.27;0.60;;;14.10;99.90;;;;;;6144318;23;20411;-85
2022/02/17 00:14:56;;;;;;;0.90;0.50;;;14.00;99.90;;;;;;6144063;23;20414;-88
2022/02/17 00:17:58;;;;;;;1.20;0.70;;;14.00;99.90;;;;;;6141265;23;20423;-88
2022/02/17 00:20:31;;;;;;;0.60;0.50;;;14.00;99.90;;;;;;6138324;23;20474;-87
2022/02/17 00:23:17;;;;;;;2.40;0.70;;;14.00;99.90;;;;;;6165836;23;20476;-86
2022/02/17 00:25:56;;;;;;;0.87;0.50;;;14.00;99.90;;;;;;6138225;23;20852;-85
2022/02/17 00:28:34;;;;;;;0.53;0.50;;;14.10;99.90;;;;;;6149298;23;20419;-84
2022/02/17 00:31:11;;;;;;;0.70;0.70;;;14.10;99.90;;;;;;6141476;23;20414;-86
2022/02/17 00:33:57;;;;;;;1.33;0.80;;;14.10;99.90;;;;;;6145756;23;20401;-88
2022/02/17 00:37:09;;;;;;;2.30;0.93;;;14.10;99.90;;;;;;6145870;23;20425;-87
2022/02/17 00:40:46;;;;;;;1.53;0.67;;;14.10;99.90;;;;;;6159471;23;20454;-88
2022/02/17 00:43:47;;;;;;;;;;;;;;;;;;;;;
2022/02/17 00:46:31;;;;;;;;;;;;;;;;;;;;;
2022/02/17 00:49:10;;;;;;;1.17;0.90;;;14.10;99.90;;;;;;6154099;23;20418;-85
2022/02/17 00:51:45;;;;;;;0.70;0.70;;;14.10;99.90;;;;;;6152856;23;20399;-87
2022/02/17 00:54:29;;;;;;;2.23;0.90;;;14.10;99.90;;;;;;6146783;23;20450;-83
2022/02/17 00:57:12;;;;;;;0.73;0.70;;;14.10;99.90;;;;;;6160139;23;20440;-84
2022/02/17 00:59:54;;;;;;;1.07;0.63;;;14.20;99.90;;;;;;6161308;23;20472;-83
2022/02/17 01:02:43;;;;;;;3.00;0.70;;;14.20;99.90;;;;;;6189827;23;20818;-84
2022/02/17 01:05:20;;;;;;;1.30;0.53;;;14.20;99.90;;;;;;6164473;23;20464;-82
2022/02/17 01:08:22;;;;;;;1.57;0.67;;;14.20;99.90;;;;;;6171586;23;20456;-84
2022/02/17 01:10:59;;;;;;;0.70;0.60;;;14.20;99.90;;;;;;6192942;23;20497;-85
2022/02/17 01:13:45;;;;;;;2.20;0.90;;;14.20;99.90;;;;;;6166373;23;20505;-85
2022/02/17 01:16:23;;;;;;;1.27;0.53;;;14.10;99.90;;;;;;6167536;23;20426;-85
2022/02/17 01:19:00;;;;;;;2.10;0.60;;;14.10;99.90;;;;;;6166727;23;20504;-86
2022/02/17 01:21:49;;;;;;;2.13;0.80;;;14.00;99.90;;;;;;6166667;23;20405;-87
2022/02/17 01:24:30;;;;;;;0.87;0.60;;;14.00;99.90;;;;;;6166742;23;20418;-86
2022/02/17 01:27:23;;;;;;;2.47;0.80;;;13.90;99.90;;;;;;6192489;23;20875;-87
2022/02/17 01:30:00;;;;;;;1.50;0.73;;;13.90;99.90;;;;;;6187543;23;20414;-85
2022/02/17 01:32:45;;;;;;;2.07;1.80;;;13.90;99.90;;;;;;6167733;23;20406;-85
2022/02/17 01:35:23;;;;;;;2.80;1.00;;;14.00;99.90;;;;;;6162477;23;20442;-85
2022/02/17 01:38:01;;;;;;;2.77;0.93;;;14.00;99.90;;;;;;6166830;23;20893;-86
2022/02/17 01:40:39;;;;;;;1.70;0.93;;;14.00;99.90;;;;;;6192009;23;20565;-84
2022/02/17 01:43:16;;;;;;;10.83;1.40;;;14.10;99.90;;;;;;6166093;23;20421;-85
2022/02/17 01:45:55;;;;;;;3.50;1.13;;;14.10;99.90;;;;;;6165814;23;20500;-84
2022/02/17 01:48:58;;;;;;;3.60;1.17;;;14.00;99.90;;;;;;6167996;23;20417;-86
2022/02/17 01:51:49;;;;;;;2.80;1.07;;;14.00;99.90;;;;;;6167419;23;20760;-84
2022/02/17 01:54:22;;;;;;;4.03;1.57;;;14.00;99.90;;;;;;6163928;23;20418;-86
2022/02/17 01:56:58;;;;;;;2.87;1.10;;;14.00;99.90;;;;;;6165860;23;20459;-86
2022/02/17 01:59:41;;;;;;;4.70;1.70;;;14.00;99.90;;;;;;6190862;23;20452;-85
2022/02/17 02:02:49;;;;;;;7.80;1.93;;;14.00;99.90;;;;;;6167491;23;20437;-86
2022/02/17 02:05:43;;;;;;;7.73;1.80;;;13.90;99.90;;;;;;6192290;23;20434;-87
2022/02/17 02:08:26;;;;;;;3.07;1.50;;;13.90;99.90;;;;;;6170692;23;20426;-88
2022/02/17 02:10:58;;;;;;;7.20;1.97;;;13.90;99.00;;;;;;6196772;23;20418;-88
2022/02/17 02:13:39;;;;;;;4.30;1.73;;;13.90;98.70;;;;;;6168893;23;20428;-86
2022/02/17 02:16:09;;;;;;;4.00;1.67;;;13.90;98.70;;;;;;6197777;23;20456;-86
2022/02/17 02:18:38;;;;;;;10.73;2.30;;;13.80;98.90;;;;;;6171436;23;20444;-87
2022/02/17 02:21:28;;;;;;;6.00;2.00;;;13.80;98.80;;;;;;6173441;23;20441;-86
2022/02/17 02:24:06;;;;;;;7.47;2.00;;;13.60;98.60;;;;;;6171616;23;20744;-86
2022/02/17 02:26:49;;;;;;;8.23;2.87;;;13.70;97.90;;;;;;6171819;23;20434;-87
2022/02/17 02:29:32;;;;;;;9.07;1.83;;;13.70;97.70;;;;;;6195164;23;20449;-86
2022/02/17 02:32:08;;;;;;;9.00;3.00;;;13.60;97.70;;;;;;6194791;23;20418;-86
2022/02/17 02:34:35;;;;;;;8.87;2.30;;;13.60;97.60;;;;;;6168835;23;20406;-87
2022/02/17 02:37:06;;;;;;;12.20;2.80;;;13.50;97.50;;;;;;6169854;23;20410;-88
2022/02/17 02:39:46;;;;;;;13.03;2.63;;;13.50;97.30;;;;;;6196670;23;20745;-86
2022/02/17 02:42:50;;;;;;;5.83;2.03;;;13.50;97.30;;;;;;6170818;23;20433;-87
2022/02/17 02:45:31;;;;;;;6.77;2.27;;;13.40;97.30;;;;;;6169790;23;20957;-87
2022/02/17 02:48:15;;;;;;;7.50;2.70;;;13.40;97.20;;;;;;6170676;23;20438;-87
2022/02/17 02:51:09;;;;;;;10.67;2.67;;;13.30;97.30;;;;;;6171394;23;20441;-88
2022/02/17 02:53:52;;;;;;;6.20;2.43;;;13.40;97.30;;;;;;6175435;23;20419;-89
2022/02/17 02:56:34;;;;;;;7.60;3.17;;;13.30;97.50;;;;;;6181942;23;20398;-86
2022/02/17 03:02:17;;;;;;;7.87;2.60;;;13.30;98.10;;;;;;6168921;23;20893;-86
2022/02/17 03:05:08;;;;;;;12.00;3.10;;;13.30;98.00;;;;;;6160341;23;20403;-86
2022/02/17 03:07:47;;;;;;;8.50;3.20;;;13.20;97.90;;;;;;6139861;23;20981;-86
2022/02/17 03:10:27;;;;;;;11.47;3.10;;;13.30;97.50;;;;;;6143236;23;20418;-89
2022/02/17 03:12:55;;;;;;;10.60;4.33;;;13.20;97.60;;;;;;6139419;23;20411;-87
2022/02/17 03:15:42;;;;;;;12.60;3.57;;;13.30;97.40;;;;;;6164423;23;20414;-89
2022/02/17 03:18:12;;;;;;;9.23;3.33;;;13.20;97.50;;;;;;6138076;23;20469;-87
2022/02/17 03:20:47;;;;;;;11.73;3.10;;;13.20;97.40;;;;;;6107217;23;20454;-86
2022/02/17 03:23:14;;;;;;;9.33;3.27;;;13.20;97.40;;;;;;6134319;23;20408;-86
2022/02/17 03:25:52;;;;;;;9.97;2.63;;;13.10;97.40;;;;;;6109867;23;20412;-88
2022/02/17 03:28:34;;;;;;;8.17;2.87;;;13.10;97.60;;;;;;6116558;23;20773;-87
2022/02/17 03:31:12;;;;;;;14.33;3.53;;;13.10;97.60;;;;;;6147154;23;20377;-86
2022/02/17 03:33:38;;;;;;;10.20;3.90;;;13.10;97.60;;;;;;6122755;23;20415;-86
2022/02/17 03:36:05;;;;;;;12.07;3.50;;;13.00;97.30;;;;;;6145089;23;20408;-86
2022/02/17 03:38:41;;;;;;;11.73;2.90;;;13.00;97.60;;;;;;6108864;23;21096;-87
2022/02/17 03:41:18;;;;;;;15.20;3.10;;;13.00;97.80;;;;;;6110671;23;20447;-86
2022/02/17 03:44:00;;;;;;;6.33;2.50;;;13.00;97.40;;;;;;6147630;23;20407;-87
2022/02/17 03:46:52;;;;;;;11.00;3.00;;;13.00;97.30;;;;;;6125119;23;20402;-87
2022/02/17 03:49:30;;;;;;;9.43;2.73;;;13.00;97.30;;;;;;6124072;23;20438;-86
2022/02/17 03:52:00;;;;;;;12.90;4.40;;;13.00;96.90;;;;;;6123961;23;20478;-86
2022/02/17 03:54:30;;;;;;;14.87;4.20;;;13.00;97.40;;;;;;6137932;23;20416;-86
2022/02/17 03:57:08;;;;;;;11.40;3.63;;;12.90;97.90;;;;;;6133158;23;20950;-87
2022/02/17 03:59:45;;;;;;;14.57;4.10;;;12.90;97.50;;;;;;6128501;23;20453;-86
2022/02/17 04:02:16;;;;;;;14.37;3.73;;;12.90;97.00;;;;;;6133589;23;20458;-87
2022/02/17 04:05:04;;;;;;;7.50;2.93;;;12.90;97.00;;;;;;6134451;23;20470;-87
2022/02/17 04:07:36;;;;;;;10.23;3.37;;;12.80;96.90;;;;;;6130309;23;20412;-86
2022/02/17 04:10:13;;;;;;;15.60;4.70;;;12.80;96.10;;;;;;6132549;23;20416;-87
2022/02/17 04:12:45;;;;;;;17.60;4.53;;;12.80;95.60;;;;;;6135343;23;20435;-87
2022/02/17 04:15:20;;;;;;;11.53;3.27;;;12.80;95.70;;;;;;6133861;23;20482;-89
2022/02/17 04:17:58;;;;;;;10.80;2.80;;;12.90;96.30;;;;;;6133259;23;20439;-86
2022/02/17 04:20:31;;;;;;;11.23;4.57;;;12.80;97.30;;;;;;6131497;23;20538;-88
2022/02/17 04:23:28;;;;;;;11.40;3.60;;;12.70;97.30;;;;;;6133227;23;20414;-86
2022/02/17 04:25:58;;;;;;;17.23;3.53;;;12.70;97.50;;;;;;6131500;23;20416;-86
2022/02/17 04:28:34;;;;;;;11.33;4.03;;;12.60;97.30;;;;;;6134176;23;20428;-86
2022/02/17 04:31:19;;;;;;;11.50;4.40;;;12.60;96.80;;;;;;6132814;23;20420;-87
2022/02/17 04:34:15;;;;;;;16.80;4.63;;;12.60;96.60;;;;;;6108367;23;20414;-88
2022/02/17 04:37:01;;;;;;;12.17;4.70;;;12.60;96.60;;;;;;6131146;23;20447;-85
2022/02/17 04:39:43;;;;;;;14.30;4.27;;;12.60;96.30;;;;;;6128647;23;20475;-86
2022/02/17 04:42:20;;;;;;;20.07;3.80;;;12.60;95.70;;;;;;6131449;23;20435;-86
2022/02/17 04:44:57;;;;;;;12.90;3.33;;;12.60;95.90;;;;;;6131892;23;21056;-86
2022/02/17 04:47:29;;;;;;;17.23;4.70;;;12.50;95.80;;;;;;6131173;23;20411;-85
2022/02/17 04:50:18;;;;;;;14.40;4.03;;;12.60;96.30;;;;;;6134596;23;20416;-86
2022/02/17 04:52:51;;;;;;;14.67;5.50;;;12.50;95.60;;;;;;6132490;23;20423;-86
2022/02/17 04:55:38;;;;;;;13.60;3.27;;;12.50;95.10;;;;;;6132050;23;20806;-85
2022/02/17 04:58:26;;;;;;;12.97;4.80;;;12.50;94.90;;;;;;6140139;23;20446;-87
2022/02/17 05:01:18;;;;;;;16.60;4.13;;;12.50;94.70;;;;;;6139014;23;20510;-85
2022/02/17 05:03:54;;;;;;;17.30;3.70;;;12.50;94.70;;;;;;6138604;23;20407;-86
2022/02/17 05:06:29;;;;;;;12.10;3.67;;;12.40;94.90;;;;;;6138196;23;20421;-87
2022/02/17 05:09:33;;;;;;;16.73;3.80;;;12.40;95.10;;;;;;6161121;23;20434;-86
2022/02/17 05:12:10;;;;;;;16.90;3.10;;;12.40;95.40;;;;;;6131259;23;20433;-86
2022/02/17 05:14:42;;;;;;;21.53;4.20;;;12.40;95.40;;;;;;6130340;23;21045;-86
2022/02/17 05:17:19;;;;;;;10.53;3.60;;;12.30;95.10;;;;;;6167550;23;20405;-86
2022/02/17 05:19:58;;;;;;;15.60;4.70;;;12.40;95.10;;;;;;6154601;23;20418;-85
2022/02/17 05:22:45;;;;;;;21.27;5.10;;;12.30;95.70;;;;;;6149360;23;20400;-87
2022/02/17 05:25:27;;;;;;;17.43;4.77;;;12.30;96.10;;;;;;6153681;23;20402;-84
2022/02/17 05:28:16;;;;;;;15.80;3.93;;;12.30;96.30;;;;;;6153713;23;20415;-85
2022/02/17 05:30:47;;;;;;;16.37;4.90;;;12.20;96.20;;;;;;6136488;23;20982;-86
2022/02/17 05:33:30;;;;;;;19.37;4.90;;;12.20;96.80;;;;;;6164963;23;21047;-86
2022/02/17 05:36:22;;;;;;;14.90;4.97;;;12.20;97.20;;;;;;6164826;23;20415;-83
2022/02/17 05:38:53;;;;;;;14.73;4.30;;;12.10;97.40;;;;;;6142151;23;20437;-86
2022/02/17 05:41:29;;;;;;;17.83;5.00;;;12.10;97.10;;;;;;6164348;23;20447;-86
2022/02/17 05:44:07;;;;;;;15.63;4.40;;;12.10;97.20;;;;;;6147917;23;20481;-88
2022/02/17 05:46:51;;;;;;;21.47;5.10;;;12.10;97.40;;;;;;6162416;23;20406;-88
2022/02/17 05:49:34;;;;;;;18.57;4.10;;;12.10;97.30;;;;;;6154653;23;20481;-86
2022/02/17 05:52:08;;;;;;;17.67;4.90;;;12.10;97.00;;;;;;6154929;23;20402;-88
2022/02/17 05:55:01;;;;;;;16.43;4.27;;;12.10;97.10;;;;;;6158634;23;20395;-87
2022/02/17 05:57:39;;;;;;;18.03;4.60;;;12.00;97.00;;;;;;6180489;23;20423;-86
2022/02/17 06:00:28;;;;;;;20.53;5.53;;;12.00;97.20;;;;;;6150227;23;20418;-88
2022/02/17 06:03:23;;;;;;;21.03;5.33;;;12.00;97.80;;;;;;6153596;23;20410;-84
2022/02/17 06:05:57;;;;;;;16.70;3.77;;;12.00;98.00;;;;;;6131852;23;20854;-86
2022/02/17 06:08:51;;;;;;;13.83;4.43;;;11.90;98.00;;;;;;6137931;23;20425;-85
2022/02/17 06:11:29;;;;;;;16.60;4.43;;;11.90;98.00;;;;;;6136666;23;20441;-86
2022/02/17 06:14:07;;;;;;;19.20;4.40;;;11.90;97.80;;;;;;6138470;23;20747;-86
2022/02/17 06:16:40;;;;;;;13.40;4.37;;;11.90;97.50;;;;;;6162221;23;20419;-86
2022/02/17 06:19:20;;;;;;;17.77;5.03;;;11.90;97.60;;;;;;6135930;23;20439;-85
2022/02/17 06:22:01;;;;;;;22.23;5.03;;;11.90;97.40;;;;;;6154562;23;20426;-86
2022/02/17 06:24:36;;;;;;;14.67;5.13;;;11.90;97.20;;;;;;6162216;23;20405;-85
2022/02/17 06:27:14;;;;;;;20.20;4.53;;;11.90;97.30;;;;;;6137321;23;20529;-86
2022/02/17 06:29:51;;;;;;;20.07;5.43;;;11.80;97.20;;;;;;6161104;23;20403;-85
2022/02/17 06:32:46;;;;;;;21.00;4.90;;;11.80;97.10;;;;;;6107590;23;20418;-85
2022/02/17 06:35:27;;;;;;;19.53;6.10;;;11.80;97.50;;;;;;6110307;23;20415;-87
2022/02/17 06:38:26;;;;;;;21.80;5.97;;;11.80;97.80;;;;;;6106962;23;20438;-85
2022/02/17 06:41:35;;;;;;;19.63;6.90;;;11.70;98.00;;;;;;6050065;23;20453;-83
2022/02/17 06:44:26;;;;;;;16.03;4.70;;;11.60;98.10;;;;;;6026931;23;20519;-86
2022/02/17 06:47:41;;;;;;;19.80;4.90;;;11.60;97.80;;;;;;6024311;23;20428;-87
2022/02/17 06:50:35;;;;;;;15.90;3.97;;;11.60;98.00;;;;;;6046445;23;20417;-86
2022/02/17 06:53:20;;;;;;;10.90;3.60;;;11.50;98.20;;;;;;6029258;23;20450;-87
2022/02/17 06:56:13;;;;;;;18.53;4.80;;;11.50;98.30;;;;;;6026024;23;20411;-88
2022/02/17 06:58:52;;;;;;;19.80;4.93;;;11.50;98.50;;;;;;6023366;23;20462;-88
2022/02/17 07:01:42;;;;;;;19.57;5.97;;;11.40;98.90;;;;;;6021630;23;20446;-86
2022/02/17 07:04:25;;;;;;;19.30;4.77;;;11.50;99.00;;;;;;6046764;23;20406;-86
2022/02/17 07:07:09;;;;;;;24.47;4.93;;;11.50;98.70;;;;;;6046913;23;20497;-88
2022/02/17 07:10:02;;;;;;;17.10;4.40;;;11.40;98.50;;;;;;6045209;23;20446;-87
2022/02/17 07:12:35;;;;;;;20.87;5.17;;;11.40;98.40;;;;;;6106021;23;20813;-87
2022/02/17 07:15:17;;;;;;;19.53;5.37;;;11.40;98.80;;;;;;6105466;23;20885;-87
2022/02/17 07:17:47;;;;;;;12.60;4.80;;;11.40;98.90;;;;;;6128650;23;20436;-87
2022/02/17 07:20:26;;;;;;;15.57;4.50;;;11.40;98.60;;;;;;6107828;23;20427;-86
2022/02/17 07:23:38;;;;;;;16.20;4.60;;;11.40;98.50;;;;;;6121554;23;20463;-84
2022/02/17 07:26:21;;;;;;;20.27;5.30;;;11.30;98.80;;;;;;6032561;23;20413;-90
2022/02/17 07:29:08;;;;;;;16.60;4.90;;;11.40;98.50;;;;;;6103197;23;20511;-84
2022/02/17 07:31:52;;;;;;;16.70;5.10;;;11.40;98.40;;;;;;6106176;23;20412;-87
2022/02/17 07:34:47;;;;;;;14.10;5.07;;;11.40;98.30;;;;;;6127530;23;20417;-87
2022/02/17 07:37:29;;;;;;;14.97;4.63;;;11.40;98.50;;;;;;6125483;23;20422;-87
2022/02/17 07:40:02;;;;;;;17.20;4.40;;;11.40;98.60;;;;;;6129367;23;20423;-86
2022/02/17 07:42:43;;;;;;;17.97;5.87;;;11.40;98.80;;;;;;6126053;23;21023;-88
2022/02/17 07:45:30;;;;;;;15.10;6.27;;;11.40;98.90;;;;;;6126365;23;20432;-87
2022/02/17 07:48:10;;;;;;;17.80;6.60;;;11.40;99.00;;;;;;6106057;23;20464;-87
2022/02/17 07:51:10;;;;;;;21.93;4.77;;;11.40;99.20;;;;;;6125544;23;20401;-85
2022/02/17 07:53:50;;;;;;;22.00;6.70;;;11.40;99.20;;;;;;6129656;23;20423;-88
2022/02/17 07:56:20;;;;;;;24.10;5.53;;;11.80;98.60;;;;;;6129298;23;20885;-85
2022/02/17 07:58:56;;;;;;;16.37;4.53;;;11.90;98.20;;;;;;6107610;23;20798;-85
2022/02/17 08:01:51;;;;;;;15.47;4.30;;;11.60;98.50;;;;;;6130845;23;20458;-86
2022/02/17 08:04:26;;;;;;;18.87;5.70;;;11.50;98.40;;;;;;6110673;23;20495;-83
2022/02/17 08:07:08;;;;;;;25.47;4.50;;;11.50;98.80;;;;;;6107113;23;20415;-85
2022/02/17 08:09:48;;;;;;;19.97;5.47;;;11.50;98.80;;;;;;6108739;23;20493;-86
2022/02/17 08:12:18;;;;;;;22.90;5.80;;;11.40;99.30;;;;;;6106384;23;20439;-86
2022/02/17 08:15:02;;;;;;;19.03;5.40;;;11.30;99.30;;;;;;6106639;23;20467;-86
2022/02/17 08:17:32;;;;;;;15.30;4.80;;;11.40;99.60;;;;;;6132797;23;20419;-87
2022/02/17 08:20:28;;;;;;;17.20;5.17;;;11.40;99.40;;;;;;6108499;23;20411;-87
2022/02/17 08:23:00;;;;;;;19.27;4.90;;;11.40;99.00;;;;;;6108993;23;20432;-86
2022/02/17 08:25:54;;;;;;;22.80;6.30;;;11.30;98.60;;;;;;6107971;23;20490;-86
2022/02/17 08:28:39;;;;;;;24.37;8.27;;;11.20;98.00;;;;;;6108997;23;20467;-85
2022/02/17 08:31:22;;;;;;;11.33;4.30;;;11.40;96.90;;;;;;6107275;23;20416;-85
2022/02/17 08:34:03;;;;;;;13.37;4.73;;;11.50;96.80;;;;;;6131808;23;20482;-87
2022/02/17 08:36:47;;;;;;;15.23;4.37;;;11.70;97.00;;;;;;6109819;23;20419;-87
2022/02/17 08:39:32;;;;;;;17.37;4.57;;;11.60;96.90;;;;;;6111233;23;20538;-86
2022/02/17 08:42:05;;;;;;;21.13;5.30;;;11.50;97.10;;;;;;6135868;23;20522;-86
2022/02/17 08:44:44;;;;;;;21.37;4.40;;;11.50;97.70;;;;;;6137849;23;20502;-87
2022/02/17 08:47:41;;;;;;;14.70;5.20;;;11.50;98.20;;;;;;6111990;23;20412;-85
2022/02/17 08:50:40;;;;;;;18.03;4.47;;;11.50;97.90;;;;;;6123260;23;20415;-88
2022/02/17 08:53:22;;;;;;;19.67;5.93;;;11.70;97.40;;;;;;6128172;23;20426;-87
2022/02/17 08:56:08;;;;;;;25.07;5.00;;;11.80;96.10;;;;;;6128280;23;20411;-88
2022/02/17 08:59:03;;;;;;;16.47;4.40;;;11.70;96.10;;;;;;6151403;23;20836;-88
2022/02/17 09:01:56;;;;;;;24.40;5.30;;;11.70;95.50;;;;;;6127258;23;20451;-88
2022/02/17 09:04:32;;;;;;;25.47;5.77;;;11.50;95.40;;;;;;6125413;23;20414;-88
2022/02/17 09:07:11;;;;;;;13.00;4.47;;;11.60;95.30;;;;;;6127259;23;20403;-87
2022/02/17 09:09:57;;;;;;;12.30;4.33;;;11.60;95.00;;;;;;6124742;23;20416;-88
2022/02/17 09:12:46;;;;;;;14.97;5.43;;;11.60;94.80;;;;;;6125024;23;20408;-89
2022/02/17 09:15:38;;;;;;;15.83;5.00;;;11.70;94.80;;;;;;6126827;23;20422;-88
2022/02/17 09:18:31;;;;;;;14.70;4.70;;;11.70;94.50;;;;;;6126523;23;20479;-88
2022/02/17 09:21:01;;;;;;;27.20;6.00;;;11.70;94.00;;;;;;6114399;23;20487;-85
2022/02/17 09:23:43;;;;;;;20.83;4.40;;;11.80;93.30;;;;;;6124651;23;20451;-84
2022/02/17 09:26:22;;;;;;;22.30;7.20;;;11.90;92.80;;;;;;6114357;23;20412;-85
2022/02/17 09:29:47;;;;;;;17.40;4.20;;;11.90;92.60;;;;;;6105536;23;20424;-87
2022/02/17 09:32:28;;;;;;;11.83;3.90;;;12.10;92.20;;;;;;6113100;23;20419;-86
2022/02/17 09:35:11;;;;;;;16.60;4.37;;;12.20;91.30;;;;;;6113674;23;20439;-85
2022/02/17 09:37:56;;;;;;;14.87;4.70;;;12.20;90.20;;;;;;6140066;23;20518;-87
2022/02/17 09:40:45;;;;;;;16.47;5.30;;;12.20;90.40;;;;;;6143164;23;20435;-86
2022/02/17 09:43:15;;;;;;;17.33;4.20;;;12.30;90.50;;;;;;6121649;23;20435;-88
2022/02/17 09:45:55;;;;;;;13.47;3.87;;;12.40;90.20;;;;;;6127239;23;20411;-86
2022/02/17 09:48:34;;;;;;;14.07;3.80;;;12.50;88.20;;;;;;6126611;23;20419;-87
2022/02/17 09:51:19;;;;;;;11.47;3.17;;;12.50;87.70;;;;;;6126341;23;20412;-88
2022/02/17 09:54:17;;;;;;;8.80;3.70;;;12.40;86.70;;;;;;6124989;23;20400;-87
2022/02/17 09:57:01;;;;;;;14.60;4.23;;;12.40;86.10;;;;;;6123260;23;20395;-89
2022/02/17 09:59:44;;;;;;;16.63;3.67;;;12.40;87.10;;;;;;6124331;23;20445;-89
2022/02/17 10:02:26;;;;;;;11.37;3.30;;;12.50;86.50;;;;;;6120466;23;20436;-88
2022/02/17 10:05:22;;;;;;;10.40;3.40;;;12.70;86.40;;;;;;6105944;23;20422;-87
2022/02/17 10:08:24;;;;;;;6.63;2.50;;;13.20;83.80;;;;;;6129651;23;20448;-86
2022/02/17 10:11:31;;;;;;;8.27;3.97;;;13.60;80.70;;;;;;6077318;23;20482;-86
2022/02/17 10:14:07;;;;;;;13.63;3.73;;;14.40;75.50;;;;;;6102436;23;20426;-86
2022/02/17 10:17:14;;;;;;;9.60;2.93;;;14.40;74.80;;;;;;6107216;23;20435;-86
2022/02/17 10:19:55;;;;;;;12.77;3.47;;;13.90;75.20;;;;;;6105665;23;20427;-86
2022/02/17 10:22:42;;;;;;;10.07;2.90;;;14.20;75.20;;;;;;6107822;23;20423;-86
2022/02/17 10:25:20;;;;;;;7.03;3.00;;;13.90;75.20;;;;;;6107171;23;21135;-86
2022/02/17 10:28:11;;;;;;;8.40;2.90;;;13.40;76.70;;;;;;6107903;23;20439;-87
2022/02/17 10:30:46;;;;;;;6.30;2.60;;;13.30;77.90;;;;;;6107996;23;20415;-87
2022/02/17 10:33:53;;;;;;;8.70;2.90;;;13.40;75.30;;;;;;6110927;23;20450;-87
2022/02/17 10:36:46;;;;;;;12.57;3.77;;;13.40;74.90;;;;;;6107462;23;20376;-87
2022/02/17 10:39:28;;;;;;;8.97;3.80;;;13.50;75.40;;;;;;6107491;23;20518;-88
2022/02/17 10:42:13;;;;;;;8.80;2.70;;;13.40;73.70;;;;;;6109247;23;21013;-87
2022/02/17 10:44:54;;;;;;;6.47;2.70;;;13.30;73.60;;;;;;6133778;23;20452;-86
2022/02/17 10:47:39;;;;;;;19.00;3.80;;;13.20;72.90;;;;;;6113448;23;20423;-88
2022/02/17 10:50:25;;;;;;;7.97;2.93;;;13.20;74.30;;;;;;6114259;23;20407;-88
2022/02/17 10:52:58;;;;;;;8.03;2.70;;;13.20;74.00;;;;;;6116015;23;20423;-88
2022/02/17 10:55:52;;;;;;;6.73;2.70;;;13.20;74.70;;;;;;6133482;23;20411;-85
2022/02/17 10:58:31;;;;;;;7.27;4.13;;;13.10;73.00;;;;;;6107249;23;20507;-86
2022/02/17 11:01:06;;;;;;;11.20;3.63;;;13.00;74.30;;;;;;6108640;23;20424;-87
2022/02/17 11:03:53;;;;;;;9.80;3.20;;;13.10;74.60;;;;;;6111033;23;20866;-86
2022/02/17 11:07:12;;;;;;;7.93;2.90;;;13.20;75.90;;;;;;6111814;23;20407;-87
2022/02/17 11:09:52;;;;;;;9.00;3.60;;;13.20;74.50;;;;;;6133857;23;20426;-87
2022/02/17 11:12:27;;;;;;;9.80;2.70;;;13.20;71.90;;;;;;6130320;23;20415;-87
2022/02/17 11:15:15;;;;;;;7.27;2.40;;;13.00;69.90;;;;;;6106174;23;20538;-87
2022/02/17 11:18:11;;;;;;;10.97;2.20;;;12.90;69.30;;;;;;6108943;23;20443;-86
2022/02/17 11:21:06;;;;;;;6.27;2.80;;;12.90;67.10;;;;;;6106175;23;20552;-85
2022/02/17 11:24:01;;;;;;;7.20;2.40;;;12.80;67.60;;;;;;6107256;23;20450;-85
2022/02/17 11:26:44;;;;;;;5.20;2.27;;;12.70;66.80;;;;;;6111314;23;20411;-85
2022/02/17 11:29:38;;;;;;;7.53;2.57;;;12.60;65.10;;;;;;6106405;23;20435;-87
2022/02/17 11:32:39;;;;;;;9.00;2.53;;;12.60;66.50;;;;;;6107941;23;20730;-84
2022/02/17 11:35:47;;;;;;;5.23;2.17;;;12.60;66.70;;;;;;6108895;23;20396;-87
2022/02/17 11:38:38;;;;;;;5.80;1.93;;;12.70;67.50;;;;;;6133033;23;20531;-87
2022/02/17 11:41:19;;;;;;;10.53;2.80;;;12.70;67.00;;;;;;6106522;23;20408;-87
2022/02/17 11:44:31;;;;;;;6.00;1.87;;;12.70;66.50;;;;;;6109719;23;20423;-86
2022/02/17 11:47:06;;;;;;;9.33;2.43;;;12.60;66.70;;;;;;6134343;23;20411;-86
2022/02/17 11:49:48;;;;;;;14.43;3.20;;;12.60;67.50;;;;;;6109216;23;20499;-86
2022/02/17 11:52:31;;;;;;;5.33;2.43;;;12.60;68.30;;;;;;6107133;23;20408;-86
2022/02/17 11:55:39;;;;;;;6.57;3.20;;;12.70;69.20;;;;;;6107922;23;20447;-86
2022/02/17 11:59:07;;;;;;;9.90;3.20;;;12.70;70.70;;;;;;6014506;23;20530;-86
2022/02/17 12:01:41;;;;;;;8.03;2.70;;;12.70;71.60;;;;;;5985373;24;20460;-86
2022/02/17 12:07:49;;;;;;;8.03;2.33;;;12.70;70.10;;;;;;6099609;23;20456;-86
2022/02/17 12:10:47;;;;;;;7.13;2.20;;;12.60;67.80;;;;;;6124476;23;20441;-88
2022/02/17 12:13:34;;;;;;;7.10;2.17;;;12.70;68.00;;;;;;6101650;23;20420;-84
2022/02/17 12:16:31;;;;;;;3.67;1.60;;;12.80;65.10;;;;;;6102898;23;20515;-86
2022/02/17 12:19:20;;;;;;;7.73;2.10;;;12.80;62.90;;;;;;6102564;23;20444;-87
2022/02/17 12:22:17;;;;;;;5.53;1.80;;;12.80;62.00;;;;;;6101767;23;20412;-87
2022/02/17 12:25:19;;;;;;;4.63;2.10;;;12.80;61.90;;;;;;6101235;23;20444;-87
2022/02/17 12:28:15;;;;;;;4.47;1.80;;;12.70;61.50;;;;;;6131983;23;20785;-86
2022/02/17 12:30:54;;;;;;;5.43;2.20;;;12.80;61.90;;;;;;6127767;23;20417;-86
2022/02/17 12:33:29;;;;;;;12.60;2.90;;;12.80;62.40;;;;;;6126944;23;20431;-88
2022/02/17 12:36:36;;;;;;;8.83;1.60;;;12.90;63.10;;;;;;6106025;23;20400;-86
2022/02/17 12:39:38;;;;;;;4.80;2.00;;;13.10;63.40;;;;;;6100898;23;20488;-87
2022/02/17 12:43:02;;;;;;;5.80;2.00;;;13.20;64.10;;;;;;6116945;23;20468;-85
2022/02/17 12:45:55;;;;;;;3.63;2.23;;;13.40;64.20;;;;;;6080232;23;20668;-88
2022/02/17 12:48:41;;;;;;;5.50;2.70;;;13.40;63.90;;;;;;6115853;23;20509;-87
2022/02/17 12:51:35;;;;;;;5.83;2.50;;;13.30;63.20;;;;;;6113338;23;20417;-85
2022/02/17 12:54:21;;;;;;;3.60;1.80;;;13.30;63.20;;;;;;6106097;23;20435;-89
2022/02/17 12:57:18;;;;;;;4.27;1.80;;;13.30;62.80;;;;;;6102198;23;20424;-84
2022/02/17 13:00:17;;;;;;;4.63;1.90;;;13.20;62.40;;;;;;6099382;23;20409;-87
2022/02/17 13:03:04;;;;;;;5.03;1.57;;;13.20;62.20;;;;;;6101908;23;20539;-87
2022/02/17 13:09:02;;;;;;;5.23;1.83;;;13.00;64.70;;;;;;6127203;23;20820;-84
2022/02/17 13:11:52;;;;;;;4.17;1.83;;;13.00;69.30;;;;;;6101822;23;20412;-86
2022/02/17 13:14:48;;;;;;;6.80;1.50;;;12.90;71.50;;;;;;6125732;23;20430;-85
2022/02/17 13:17:34;;;;;;;4.80;1.60;;;12.80;72.10;;;;;;6125127;23;20513;-86
2022/02/17 13:20:27;;;;;;;4.00;1.50;;;12.70;71.20;;;;;;6125013;23;20817;-85
2022/02/17 13:23:02;;;;;;;5.13;2.13;;;12.70;71.50;;;;;;6108937;23;20467;-86
2022/02/17 13:25:55;;;;;;;8.30;2.27;;;12.70;71.90;;;;;;6099957;23;20468;-85
2022/02/17 13:28:36;;;;;;;5.77;1.60;;;12.70;71.90;;;;;;6093094;23;20425;-84
2022/02/17 13:31:42;;;;;;;3.30;1.60;;;12.70;72.40;;;;;;6101962;23;20496;-88
2022/02/17 13:34:45;;;;;;;;;;;;;;;;;;;;;
2022/02/17 13:37:58;;;;;;;4.90;1.90;;;12.70;76.00;;;;;;6101160;23;20412;-86
2022/02/17 13:40:48;;;;;;;6.33;2.47;;;12.60;77.70;;;;;;6120533;23;20463;-85
2022/02/17 13:47:51;;;;;;;;;;;;;;;;;;;;;
2022/02/17 13:50:59;;;;;;;4.73;1.90;;;12.40;81.40;;;;;;6098300;23;20417;-87
2022/02/17 13:53:52;;;;;;;4.07;1.60;;;12.50;82.10;;;;;;6112914;23;20432;-86
2022/02/17 13:56:25;;;;;;;6.70;1.93;;;12.50;82.00;;;;;;6096482;23;20515;-86
2022/02/17 13:59:06;;;;;;;6.10;1.77;;;12.50;82.20;;;;;;6093991;23;20622;-85
2022/02/17 14:02:07;;;;;;;;;;;;;;;;;;;;;
2022/02/17 14:05:10;;;;;;;5.63;2.40;;;12.70;82.70;;;;;;6093323;23;20399;-86
2022/02/17 14:08:13;;;;;;;;;;;;;;;;;;;;;
2022/02/17 14:11:04;;;;;;;6.27;2.03;;;12.90;80.90;;;;;;6059407;23;20409;-86
2022/02/17 14:14:14;;;;;;;11.50;2.47;;;12.90;80.00;;;;;;6093266;23;20409;-85
2022/02/17 14:16:49;;;;;;;7.03;2.00;;;12.80;77.10;;;;;;6088130;23;20867;-86
2022/02/17 14:19:39;;;;;;;7.07;1.93;;;12.70;75.30;;;;;;6095784;23;20443;-87
2022/02/17 14:22:37;;;;;;;6.93;2.43;;;12.70;75.30;;;;;;6117953;23;20409;-85
2022/02/17 14:25:31;;;;;;;4.40;1.60;;;12.80;74.60;;;;;;6117486;23;20488;-86
2022/02/17 14:28:20;;;;;;;5.83;3.53;;;12.80;73.40;;;;;;6095842;23;20420;-86
2022/02/17 14:31:13;;;;;;;5.07;1.50;;;12.90;73.00;;;;;;6112216;23;20404;-86
2022/02/17 14:33:52;;;;;;;5.93;1.50;;;12.90;72.60;;;;;;6114048;23;20412;-86
2022/02/17 14:37:09;;;;;;;6.07;2.33;;;12.90;73.00;;;;;;6120562;23;20408;-85